Time;durP1;ratioP1;P1;durP2;ratioP2;P2;SDS_P1;SDS_P2;PMS_P1;PMS_P2;Temp;Humidity;BMP_temperature;BMP_pressure;BME280_temperature;BME280_humidity;BME280_pressure;Samples;Min_cycle;Max_cycle;Signal;HPM_P1;HPM_P2
2021/12/31 00:05:02;;;;;;;4.30;1.93;;;15.00;99.90;;;;;;5016076;28;20457;-88
2021/12/31 00:07:45;;;;;;;5.10;2.90;;;14.90;99.90;;;;;;5019749;28;20540;-89
2021/12/31 00:10:56;;;;;;;9.83;2.53;;;15.00;99.90;;;;;;5019774;28;20904;-89
2021/12/31 00:16:52;;;;;;;3.60;1.93;;;15.00;99.90;;;;;;5007676;28;20478;-89
2021/12/31 00:20:00;;;;;;;6.60;2.57;;;14.90;99.90;;;;;;5022412;28;20429;-88
2021/12/31 00:25:29;;;;;;;6.83;3.70;;;14.90;99.90;;;;;;5015366;28;20451;-89
2021/12/31 00:28:02;;;;;;;6.77;1.87;;;15.00;99.90;;;;;;5030465;28;20450;-88
2021/12/31 00:33:53;;;;;;;4.23;2.10;;;14.90;99.90;;;;;;5035276;28;20438;-88
2021/12/31 00:36:38;;;;;;;3.97;1.90;;;14.80;99.90;;;;;;5007652;28;20463;-88
2021/12/31 00:39:37;;;;;;;3.17;1.50;;;14.80;99.90;;;;;;5031865;28;20627;-87
2021/12/31 00:42:24;;;;;;;3.13;1.57;;;14.70;99.90;;;;;;5018550;28;20457;-88
2021/12/31 00:44:59;;;;;;;4.23;1.83;;;14.70;99.90;;;;;;5017498;28;20467;-87
2021/12/31 00:47:36;;;;;;;3.90;1.90;;;14.60;99.90;;;;;;5018984;28;20455;-88
2021/12/31 00:50:07;;;;;;;6.30;2.00;;;14.70;99.90;;;;;;5018179;28;20527;-88
2021/12/31 00:53:00;;;;;;;3.00;1.47;;;14.60;99.90;;;;;;5029728;28;20444;-88
2021/12/31 00:56:01;;;;;;;4.13;1.97;;;14.60;99.90;;;;;;5037646;28;20467;-88
2021/12/31 00:58:39;;;;;;;3.73;1.70;;;14.70;99.90;;;;;;5035052;28;20431;-88
2021/12/31 01:01:17;;;;;;;3.67;2.13;;;14.70;99.90;;;;;;5036506;28;20462;-89
2021/12/31 01:04:05;;;;;;;4.40;1.80;;;14.70;99.90;;;;;;5038079;28;20476;-89
2021/12/31 01:06:57;;;;;;;3.77;1.93;;;14.70;99.90;;;;;;5037225;28;20459;-89
2021/12/31 01:09:55;;;;;;;3.80;1.73;;;14.70;99.90;;;;;;5027794;28;20429;-88
2021/12/31 01:12:50;;;;;;;5.23;2.10;;;14.70;99.90;;;;;;5023931;28;20448;-89
2021/12/31 01:15:57;;;;;;;4.20;1.80;;;14.60;99.90;;;;;;5030898;28;20470;-88
2021/12/31 01:21:53;;;;;;;5.63;2.37;;;14.50;99.90;;;;;;5034015;28;20388;-88
2021/12/31 01:24:44;;;;;;;4.80;1.60;;;14.50;99.90;;;;;;5030472;28;20482;-90
2021/12/31 01:27:22;;;;;;;4.80;1.57;;;14.40;99.90;;;;;;5024225;28;20555;-88
2021/12/31 01:32:52;;;;;;;5.43;1.60;;;14.50;99.90;;;;;;5020711;28;20466;-88
2021/12/31 01:35:27;;;;;;;6.50;1.40;;;14.40;99.90;;;;;;5017711;28;20481;-88
2021/12/31 01:38:36;;;;;;;3.70;1.60;;;14.30;99.90;;;;;;5018415;28;20446;-88
2021/12/31 01:41:16;;;;;;;7.83;2.47;;;14.20;99.90;;;;;;5037166;28;20409;-89
2021/12/31 01:43:47;;;;;;;4.73;1.87;;;14.20;99.90;;;;;;5017769;28;20492;-89
2021/12/31 01:46:26;;;;;;;4.83;2.07;;;14.10;99.90;;;;;;5017005;28;20561;-89
2021/12/31 01:52:31;;;;;;;3.70;1.70;;;14.10;99.90;;;;;;5025990;28;20474;-89
2021/12/31 01:55:10;;;;;;;4.37;1.87;;;13.90;99.90;;;;;;5021809;28;20439;-89
2021/12/31 01:58:10;;;;;;;3.90;1.60;;;13.90;99.90;;;;;;5021543;28;20454;-89
2021/12/31 02:00:49;;;;;;;4.53;1.53;;;13.90;99.90;;;;;;5021137;28;20436;-90
2021/12/31 02:03:36;;;;;;;4.20;1.50;;;13.90;99.90;;;;;;5018496;28;20857;-89
2021/12/31 02:11:53;;;;;;;3.80;1.90;;;13.60;99.90;;;;;;5014338;28;20440;-88
2021/12/31 02:14:30;;;;;;;4.73;1.83;;;13.60;99.90;;;;;;5016722;28;20454;-88
2021/12/31 02:17:09;;;;;;;3.80;1.70;;;13.60;99.90;;;;;;5015813;28;20429;-88
2021/12/31 02:23:06;;;;;;;5.87;2.33;;;13.40;99.90;;;;;;5025298;28;20452;-88
2021/12/31 02:25:39;;;;;;;6.00;2.03;;;13.30;99.90;;;;;;5031441;28;20556;-89
2021/12/31 02:28:12;;;;;;;4.20;1.90;;;13.20;99.90;;;;;;5027050;28;20432;-89
2021/12/31 02:30:40;;;;;;;5.60;2.10;;;13.20;99.90;;;;;;5020370;28;20810;-89
2021/12/31 02:33:17;;;;;;;4.10;1.63;;;13.10;99.90;;;;;;5036896;28;20524;-88
2021/12/31 02:36:19;;;;;;;5.50;2.27;;;13.10;99.90;;;;;;5038468;28;20474;-89
2021/12/31 02:39:01;;;;;;;7.03;1.60;;;13.00;99.90;;;;;;5037360;28;20468;-88
2021/12/31 02:44:23;;;;;;;6.57;2.27;;;12.90;99.90;;;;;;5025147;28;20485;-87
2021/12/31 02:47:02;;;;;;;5.83;1.80;;;12.80;99.90;;;;;;5020383;28;20460;-88
2021/12/31 02:49:44;;;;;;;4.87;1.90;;;12.70;99.90;;;;;;5020270;28;20471;-88
2021/12/31 02:52:23;;;;;;;5.00;1.93;;;12.70;99.90;;;;;;5024509;28;20447;-88
2021/12/31 02:55:03;;;;;;;4.20;1.80;;;12.70;99.90;;;;;;5037406;28;20420;-91
2021/12/31 02:57:47;;;;;;;3.90;1.90;;;12.70;99.90;;;;;;5039676;28;20410;-88
2021/12/31 03:00:19;;;;;;;3.13;1.50;;;12.70;99.90;;;;;;5035415;28;20440;-88
2021/12/31 03:03:13;;;;;;;6.50;1.73;;;12.70;99.90;;;;;;5028416;28;20435;-88
2021/12/31 03:09:18;;;;;;;6.27;2.00;;;12.60;99.90;;;;;;4955157;28;20513;-89
2021/12/31 03:11:57;;;;;;;4.20;1.57;;;12.50;99.90;;;;;;5034528;28;20926;-90
2021/12/31 03:17:26;;;;;;;3.80;1.87;;;12.30;99.90;;;;;;5031463;28;20458;-89
2021/12/31 03:20:12;;;;;;;4.03;2.07;;;12.20;99.90;;;;;;5028610;28;20393;-88
2021/12/31 03:22:49;;;;;;;3.80;1.97;;;12.00;99.90;;;;;;5037262;28;20448;-89
2021/12/31 03:25:32;;;;;;;6.30;1.33;;;12.00;99.90;;;;;;5039297;28;20539;-89
2021/12/31 03:28:10;;;;;;;4.43;1.90;;;12.00;99.90;;;;;;5039153;28;20436;-88
2021/12/31 03:30:53;;;;;;;4.63;1.70;;;12.10;99.90;;;;;;5040216;28;20433;-89
2021/12/31 03:33:24;;;;;;;3.57;1.80;;;11.90;99.90;;;;;;5032965;28;20491;-87
2021/12/31 03:35:57;;;;;;;5.60;2.30;;;11.90;99.90;;;;;;5027839;28;20963;-88
2021/12/31 03:38:28;;;;;;;6.40;2.33;;;11.80;99.90;;;;;;5028719;28;20429;-88
2021/12/31 03:41:02;;;;;;;4.17;2.03;;;11.70;99.90;;;;;;5019784;28;20500;-89
2021/12/31 03:43:31;;;;;;;5.37;2.03;;;11.60;99.90;;;;;;5018988;28;20443;-89
2021/12/31 03:46:10;;;;;;;4.40;1.93;;;11.60;99.90;;;;;;5021423;28;20490;-90
2021/12/31 03:48:40;;;;;;;8.00;2.10;;;11.60;99.90;;;;;;5037862;28;20424;-88
2021/12/31 03:51:14;;;;;;;4.80;1.67;;;11.60;99.90;;;;;;5019616;28;20481;-89
2021/12/31 03:53:45;;;;;;;5.30;1.80;;;11.60;99.90;;;;;;5019415;28;20475;-88
2021/12/31 03:56:19;;;;;;;4.30;1.90;;;11.60;99.90;;;;;;5018049;28;21023;-88
2021/12/31 03:58:55;;;;;;;5.13;1.77;;;11.70;99.90;;;;;;5019539;28;20428;-88
2021/12/31 04:04:08;;;;;;;4.63;2.53;;;11.70;99.90;;;;;;5027928;28;20428;-87
2021/12/31 04:06:44;;;;;;;5.13;1.90;;;11.50;99.90;;;;;;5028414;28;20464;-87
2021/12/31 04:09:21;;;;;;;3.33;1.70;;;11.50;99.90;;;;;;5024926;28;20485;-88
2021/12/31 04:12:00;;;;;;;4.30;1.33;;;11.50;99.90;;;;;;5026873;28;20504;-88
2021/12/31 04:14:34;;;;;;;4.80;1.73;;;11.40;99.90;;;;;;5018161;28;20429;-88
2021/12/31 04:17:02;;;;;;;4.03;1.80;;;11.40;99.90;;;;;;5018046;28;20487;-90
2021/12/31 04:19:30;;;;;;;5.90;2.23;;;11.40;99.90;;;;;;5019684;28;20460;-88
2021/12/31 04:21:57;;;;;;;4.03;1.80;;;11.30;99.90;;;;;;5020028;28;20488;-88
2021/12/31 04:27:13;;;;;;;4.00;1.50;;;11.20;99.90;;;;;;5017790;28;20477;-87
2021/12/31 04:29:58;;;;;;;3.47;1.60;;;11.20;99.90;;;;;;5018627;28;20459;-88
2021/12/31 04:32:26;;;;;;;4.40;1.70;;;11.20;99.90;;;;;;5018096;28;20438;-88
2021/12/31 04:34:58;;;;;;;4.93;2.03;;;11.10;99.90;;;;;;5017624;28;20437;-88
2021/12/31 04:37:27;;;;;;;3.67;1.63;;;11.10;99.90;;;;;;5018189;28;20889;-87
2021/12/31 04:40:02;;;;;;;6.73;1.90;;;11.10;99.90;;;;;;5017789;28;20519;-87
2021/12/31 04:42:34;;;;;;;7.60;1.90;;;11.00;99.90;;;;;;5019649;28;20453;-88
2021/12/31 04:45:06;;;;;;;3.70;1.80;;;11.00;99.90;;;;;;5018404;28;20481;-88
2021/12/31 04:47:42;;;;;;;5.50;1.83;;;11.00;99.90;;;;;;5019365;28;20662;-89
2021/12/31 04:50:13;;;;;;;4.13;1.80;;;11.00;99.90;;;;;;5018592;28;20484;-88
2021/12/31 04:52:44;;;;;;;4.33;2.10;;;10.90;99.90;;;;;;5018177;28;20480;-88
2021/12/31 04:55:14;;;;;;;4.30;1.93;;;10.90;99.90;;;;;;5027076;28;20448;-88
2021/12/31 04:57:58;;;;;;;5.67;2.07;;;10.90;99.90;;;;;;5022358;28;20457;-88
2021/12/31 05:00:28;;;;;;;5.00;1.73;;;10.90;99.90;;;;;;5025703;28;20456;-88
2021/12/31 05:02:57;;;;;;;4.93;1.97;;;10.90;99.90;;;;;;5026694;28;20794;-88
2021/12/31 05:05:27;;;;;;;3.40;1.73;;;10.90;99.90;;;;;;5021596;28;20497;-88
2021/12/31 05:07:54;;;;;;;4.17;1.90;;;10.90;99.90;;;;;;5021270;28;20441;-87
2021/12/31 05:10:23;;;;;;;5.97;1.67;;;11.00;99.90;;;;;;5027930;28;20428;-90
2021/12/31 05:12:56;;;;;;;4.90;2.00;;;10.90;99.90;;;;;;5037721;28;20450;-90
2021/12/31 05:15:32;;;;;;;4.73;2.13;;;10.90;99.90;;;;;;5037810;28;20474;-90
2021/12/31 05:18:05;;;;;;;4.00;2.10;;;11.00;99.90;;;;;;5038047;28;20428;-89
2021/12/31 05:20:44;;;;;;;4.43;1.80;;;10.90;99.90;;;;;;5038142;28;20544;-88
2021/12/31 05:23:14;;;;;;;4.70;1.73;;;10.90;99.90;;;;;;5035260;28;20465;-88
2021/12/31 05:25:41;;;;;;;3.87;1.77;;;10.90;99.90;;;;;;5043206;22;20530;-81
2021/12/31 05:28:09;;;;;;;4.13;1.53;;;10.90;99.90;;;;;;4977857;28;20507;-80
2021/12/31 05:30:36;;;;;;;3.43;1.90;;;10.90;99.90;;;;;;4977967;28;20447;-80
2021/12/31 05:33:03;;;;;;;3.50;1.90;;;10.80;99.90;;;;;;4979666;28;20465;-80
2021/12/31 05:35:30;;;;;;;3.90;1.97;;;10.70;99.90;;;;;;4988949;28;20515;-80
2021/12/31 05:37:57;;;;;;;8.03;2.20;;;10.70;99.90;;;;;;4980150;28;20454;-81
2021/12/31 05:40:24;;;;;;;3.80;1.90;;;10.70;99.90;;;;;;4978291;28;20466;-80
2021/12/31 05:42:50;;;;;;;4.87;2.27;;;10.70;99.90;;;;;;4977545;28;20451;-80
2021/12/31 05:45:19;;;;;;;4.10;1.83;;;10.70;99.90;;;;;;4977601;28;21043;-81
2021/12/31 05:47:47;;;;;;;4.43;2.20;;;10.70;99.90;;;;;;4978171;28;20837;-83
2021/12/31 05:50:27;;;;;;;3.30;1.60;;;10.70;99.90;;;;;;4977973;28;20493;-81
2021/12/31 05:52:54;;;;;;;4.73;2.10;;;10.70;99.90;;;;;;4988035;28;20470;-80
2021/12/31 05:55:21;;;;;;;4.37;2.23;;;10.70;99.90;;;;;;4982935;28;20908;-79
2021/12/31 05:57:48;;;;;;;7.63;1.70;;;10.60;99.90;;;;;;4981871;28;20993;-81
2021/12/31 06:00:16;;;;;;;5.07;2.17;;;10.70;99.90;;;;;;4978548;28;20479;-80
2021/12/31 06:02:44;;;;;;;3.90;1.88;;;10.70;99.90;;;;;;4977892;28;20434;-80
2021/12/31 06:05:11;;;;;;;4.40;2.40;;;10.70;99.90;;;;;;4986152;28;20266;-81
2021/12/31 06:07:38;;;;;;;4.80;1.83;;;10.60;99.90;;;;;;4980105;28;20436;-81
2021/12/31 06:10:06;;;;;;;3.78;1.88;;;10.70;99.90;;;;;;4981947;28;20855;-81
2021/12/31 06:12:35;;;;;;;4.67;2.17;;;10.60;99.90;;;;;;4980358;28;20250;-78
2021/12/31 06:15:04;;;;;;;4.27;1.80;;;10.50;99.90;;;;;;4980122;28;20435;-79
2021/12/31 06:17:32;;;;;;;7.53;2.17;;;10.50;99.90;;;;;;4979930;28;20833;-79
2021/12/31 06:20:00;;;;;;;3.23;1.63;;;10.40;99.90;;;;;;4979996;28;20872;-79
2021/12/31 06:22:29;;;;;;;6.63;2.25;;;10.40;99.90;;;;;;4979840;28;20459;-78
2021/12/31 06:24:56;;;;;;;4.40;2.07;;;10.40;99.90;;;;;;4980154;28;20227;-79
2021/12/31 06:27:23;;;;;;;5.83;2.73;;;10.50;99.90;;;;;;4979384;28;20482;-80
2021/12/31 06:29:49;;;;;;;5.50;2.27;;;10.50;99.90;;;;;;4982157;28;20474;-79
2021/12/31 06:32:16;;;;;;;5.30;2.23;;;10.50;99.90;;;;;;4980146;28;20454;-78
2021/12/31 06:34:43;;;;;;;5.33;2.10;;;10.50;99.90;;;;;;4980929;28;20466;-78
2021/12/31 06:37:11;;;;;;;6.15;2.40;;;10.40;99.90;;;;;;4985058;28;20543;-78
2021/12/31 06:39:40;;;;;;;5.07;2.40;;;10.20;99.90;;;;;;4982600;28;20301;-78
2021/12/31 06:42:08;;;;;;;3.63;2.13;;;10.20;99.90;;;;;;4981863;28;20946;-78
2021/12/31 06:44:35;;;;;;;4.40;2.23;;;10.10;99.90;;;;;;4984080;28;20446;-78
2021/12/31 06:47:02;;;;;;;3.73;2.20;;;10.10;99.90;;;;;;4988359;28;20466;-78
2021/12/31 06:49:29;;;;;;;4.20;2.10;;;10.10;99.90;;;;;;4986396;28;20454;-78
2021/12/31 06:51:56;;;;;;;5.20;2.17;;;10.10;99.90;;;;;;4985055;28;20544;-83
2021/12/31 06:54:24;;;;;;;4.30;1.90;;;10.00;99.90;;;;;;4985647;28;20474;-83
2021/12/31 06:56:51;;;;;;;4.80;1.95;;;9.90;99.90;;;;;;4986434;28;20475;-84
2021/12/31 06:59:18;;;;;;;6.20;2.27;;;10.00;99.90;;;;;;4987699;28;20230;-86
2021/12/31 07:01:45;;;;;;;4.53;2.20;;;10.00;99.90;;;;;;4985259;28;20523;-85
2021/12/31 07:04:15;;;;;;;4.33;1.80;;;10.10;99.90;;;;;;4983086;28;20465;-87
2021/12/31 07:06:41;;;;;;;3.90;1.87;;;10.00;99.90;;;;;;4982483;28;20571;-82
2021/12/31 07:09:08;;;;;;;4.22;2.58;;;10.00;99.90;;;;;;4985168;28;20515;-85
2021/12/31 07:11:36;;;;;;;4.33;2.37;;;9.90;99.90;;;;;;4995771;28;20243;-84
2021/12/31 07:14:03;;;;;;;6.10;2.40;;;10.00;99.90;;;;;;4985236;28;20793;-84
2021/12/31 07:16:30;;;;;;;4.83;2.03;;;10.00;99.90;;;;;;4985165;28;20259;-84
2021/12/31 07:18:57;;;;;;;4.50;2.30;;;10.10;99.90;;;;;;4985830;28;20474;-83
2021/12/31 07:21:24;;;;;;;9.10;2.03;;;10.10;99.90;;;;;;4986459;28;20479;-85
2021/12/31 07:23:51;;;;;;;8.63;2.43;;;10.10;99.90;;;;;;4985461;28;20857;-85
2021/12/31 07:26:18;;;;;;;3.97;1.80;;;10.10;99.90;;;;;;4992622;28;20543;-84
2021/12/31 07:28:46;;;;;;;3.70;1.83;;;10.20;99.90;;;;;;4987561;28;20537;-85
2021/12/31 07:31:14;;;;;;;7.70;2.67;;;10.20;99.90;;;;;;4984610;28;21000;-84
2021/12/31 07:33:41;;;;;;;5.60;2.70;;;10.30;99.90;;;;;;4984749;28;20458;-85
2021/12/31 07:36:08;;;;;;;5.10;1.83;;;10.30;99.90;;;;;;4983690;28;20558;-86
2021/12/31 07:38:38;;;;;;;7.97;3.37;;;10.40;99.90;;;;;;4982837;28;20501;-86
2021/12/31 07:41:06;;;;;;;4.83;2.10;;;10.40;99.90;;;;;;4983988;28;20815;-84
2021/12/31 07:43:33;;;;;;;4.60;2.03;;;10.40;99.90;;;;;;4983152;28;20474;-83
2021/12/31 07:46:01;;;;;;;4.43;2.20;;;10.30;99.90;;;;;;4981554;28;21008;-84
2021/12/31 07:48:28;;;;;;;7.10;3.00;;;10.30;99.90;;;;;;4980241;28;20524;-86
2021/12/31 07:50:56;;;;;;;3.70;2.17;;;10.30;99.90;;;;;;4979910;28;20497;-84
2021/12/31 07:53:22;;;;;;;4.97;2.20;;;10.30;99.90;;;;;;4980591;28;20546;-85
2021/12/31 07:55:50;;;;;;;4.27;2.40;;;10.30;99.90;;;;;;4981814;28;20531;-85
2021/12/31 07:58:17;;;;;;;6.97;2.50;;;10.20;99.90;;;;;;4981799;28;20791;-87
2021/12/31 08:00:45;;;;;;;4.60;2.38;;;10.10;99.90;;;;;;4985806;28;20493;-84
2021/12/31 08:03:19;;;;;;;5.90;2.43;;;10.10;99.90;;;;;;4991960;28;20589;-82
2021/12/31 08:05:46;;;;;;;4.80;2.47;;;10.10;99.90;;;;;;4993232;28;20489;-84
2021/12/31 08:08:13;;;;;;;4.93;2.50;;;10.20;99.90;;;;;;4985254;28;20250;-85
2021/12/31 08:10:40;;;;;;;3.73;2.03;;;10.10;99.90;;;;;;4985761;28;20469;-84
2021/12/31 08:13:07;;;;;;;7.00;2.83;;;10.10;99.90;;;;;;4986707;28;20478;-84
2021/12/31 08:15:34;;;;;;;3.75;2.20;;;10.10;99.90;;;;;;4987055;28;20505;-85
2021/12/31 08:18:01;;;;;;;4.53;2.60;;;10.10;99.90;;;;;;4985360;28;20220;-85
2021/12/31 08:20:29;;;;;;;4.18;2.45;;;10.10;99.90;;;;;;4987278;28;20215;-85
2021/12/31 08:23:07;;;;;;;6.27;2.67;;;10.10;99.90;;;;;;4986430;28;20277;-86
2021/12/31 08:25:34;;;;;;;5.20;2.77;;;10.10;99.90;;;;;;4987644;28;20594;-85
2021/12/31 08:28:03;;;;;;;4.33;2.43;;;10.20;99.90;;;;;;4990033;28;20482;-85
2021/12/31 08:30:30;;;;;;;4.30;2.77;;;10.30;99.90;;;;;;4982482;28;20904;-86
2021/12/31 08:32:57;;;;;;;6.13;3.57;;;10.30;99.90;;;;;;4987586;28;20493;-86
2021/12/31 08:35:24;;;;;;;5.22;2.67;;;10.30;99.90;;;;;;4997398;28;20461;-86
2021/12/31 08:37:52;;;;;;;8.23;4.10;;;10.30;99.90;;;;;;4998266;28;20242;-86
2021/12/31 08:40:20;;;;;;;6.63;3.27;;;10.30;99.90;;;;;;4995760;28;20434;-85
2021/12/31 08:42:47;;;;;;;5.57;3.67;;;10.30;99.90;;;;;;4995198;28;20534;-85
2021/12/31 08:45:14;;;;;;;6.27;3.40;;;10.30;99.90;;;;;;4988541;28;20455;-86
2021/12/31 08:47:41;;;;;;;7.50;3.50;;;10.40;99.90;;;;;;4998058;28;20474;-85
2021/12/31 08:50:09;;;;;;;5.50;3.40;;;10.40;99.90;;;;;;4988387;28;20501;-85
2021/12/31 08:52:36;;;;;;;6.13;3.43;;;10.50;99.90;;;;;;4983794;28;20443;-86
2021/12/31 08:55:05;;;;;;;5.50;3.50;;;10.60;99.90;;;;;;4984360;28;20454;-86
2021/12/31 08:57:32;;;;;;;8.13;5.50;;;10.70;99.90;;;;;;4983840;28;20514;-86
2021/12/31 08:59:59;;;;;;;7.50;4.43;;;10.70;99.90;;;;;;4982524;28;20457;-86
2021/12/31 09:02:26;;;;;;;7.70;4.60;;;10.80;99.90;;;;;;4984934;28;20465;-84
2021/12/31 09:04:52;;;;;;;7.77;4.90;;;11.00;99.90;;;;;;4983307;28;20541;-85
2021/12/31 09:07:19;;;;;;;7.40;4.67;;;11.10;99.90;;;;;;4982975;28;20501;-82
2021/12/31 09:09:46;;;;;;;7.10;4.43;;;11.20;99.90;;;;;;4982589;28;20502;-84
2021/12/31 09:12:14;;;;;;;9.67;4.60;;;11.20;99.90;;;;;;4983885;28;20459;-85
2021/12/31 09:14:41;;;;;;;9.20;5.17;;;11.30;99.90;;;;;;4982875;28;20455;-85
2021/12/31 09:17:08;;;;;;;7.10;5.03;;;11.40;99.90;;;;;;4986190;28;20558;-84
2021/12/31 09:19:35;;;;;;;7.00;4.10;;;11.50;99.90;;;;;;4987423;28;20429;-84
2021/12/31 09:22:04;;;;;;;7.30;4.60;;;11.60;99.90;;;;;;4983440;28;20478;-84
2021/12/31 09:24:31;;;;;;;6.67;4.30;;;11.70;99.90;;;;;;4981318;28;20466;-84
2021/12/31 09:26:58;;;;;;;9.63;6.93;;;11.90;99.90;;;;;;4982814;28;20518;-84
2021/12/31 09:29:26;;;;;;;10.10;5.43;;;12.00;99.90;;;;;;4991344;28;20455;-85
2021/12/31 09:31:54;;;;;;;8.80;5.30;;;12.10;99.90;;;;;;4982618;28;20539;-89
2021/12/31 09:34:20;;;;;;;9.80;5.87;;;12.20;99.90;;;;;;4981765;28;20428;-86
2021/12/31 09:36:47;;;;;;;8.80;5.20;;;12.30;99.90;;;;;;4984926;28;20471;-86
2021/12/31 09:39:14;;;;;;;8.00;4.63;;;12.40;99.90;;;;;;4978445;28;20955;-87
2021/12/31 09:41:42;;;;;;;7.90;5.40;;;12.40;99.90;;;;;;4982829;28;20546;-86
2021/12/31 09:44:10;;;;;;;8.50;5.80;;;12.40;99.90;;;;;;4985286;28;20458;-86
2021/12/31 09:46:39;;;;;;;8.27;5.60;;;12.40;99.90;;;;;;4986032;28;20473;-87
2021/12/31 09:49:06;;;;;;;7.67;5.43;;;12.50;99.90;;;;;;4969694;28;20437;-85
2021/12/31 09:51:35;;;;;;;8.63;4.63;;;12.50;99.90;;;;;;4990472;28;20502;-84
2021/12/31 09:54:02;;;;;;;7.20;4.60;;;12.50;99.90;;;;;;4987506;28;20472;-84
2021/12/31 09:56:29;;;;;;;8.27;5.23;;;12.60;99.90;;;;;;4988233;28;20904;-85
2021/12/31 09:58:58;;;;;;;7.97;5.07;;;12.60;99.90;;;;;;4989741;28;20446;-85
2021/12/31 10:01:25;;;;;;;9.17;5.47;;;12.70;99.90;;;;;;4986836;28;20915;-84
2021/12/31 10:04:00;;;;;;;7.43;5.20;;;12.70;99.90;;;;;;4990617;28;20451;-81
2021/12/31 10:06:27;;;;;;;8.57;5.57;;;12.80;99.90;;;;;;4985613;28;20514;-81
2021/12/31 10:08:57;;;;;;;7.83;4.97;;;12.90;99.90;;;;;;4993223;28;20490;-81
2021/12/31 10:11:25;;;;;;;7.27;5.07;;;13.00;99.90;;;;;;4989844;28;20455;-81
2021/12/31 10:13:56;;;;;;;7.37;4.50;;;13.10;99.90;;;;;;4994270;28;20444;-81
2021/12/31 10:16:25;;;;;;;6.67;4.27;;;13.00;99.90;;;;;;4991311;28;20550;-81
2021/12/31 10:19:06;;;;;;;7.00;4.97;;;13.20;99.90;;;;;;4985890;28;20507;-81
2021/12/31 10:21:38;;;;;;;7.83;5.40;;;13.20;99.90;;;;;;4992544;28;20416;-81
2021/12/31 10:24:20;;;;;;;7.33;4.83;;;13.20;99.90;;;;;;4993538;28;20567;-82
2021/12/31 10:26:47;;;;;;;6.23;4.63;;;13.30;99.90;;;;;;4988930;28;20472;-81
2021/12/31 10:29:15;;;;;;;8.10;5.00;;;13.30;99.90;;;;;;4996491;28;20487;-81
2021/12/31 10:31:43;;;;;;;6.00;4.43;;;13.40;99.90;;;;;;4996497;28;20422;-81
2021/12/31 10:34:25;;;;;;;7.87;5.07;;;13.20;99.90;;;;;;4989103;28;20430;-81
2021/12/31 10:36:52;;;;;;;7.37;4.43;;;13.30;99.90;;;;;;4988879;28;20450;-81
2021/12/31 10:39:21;;;;;;;8.00;6.03;;;13.20;99.90;;;;;;4984854;28;20463;-81
2021/12/31 10:41:52;;;;;;;7.30;5.03;;;13.10;99.90;;;;;;4984656;28;20900;-82
2021/12/31 10:44:19;;;;;;;9.00;5.10;;;13.30;99.90;;;;;;4984788;28;20542;-81
2021/12/31 10:46:46;;;;;;;7.10;4.50;;;13.40;99.90;;;;;;4991055;28;20491;-80
2021/12/31 10:49:15;;;;;;;5.80;4.33;;;13.50;99.90;;;;;;4985049;28;20466;-80
2021/12/31 10:51:43;;;;;;;7.70;5.10;;;13.60;99.90;;;;;;4984062;28;20452;-81
2021/12/31 10:54:27;;;;;;;7.30;5.30;;;13.70;99.90;;;;;;4988565;28;20833;-80
2021/12/31 10:56:54;;;;;;;7.60;4.23;;;13.70;99.90;;;;;;4983309;28;20458;-81
2021/12/31 10:59:21;;;;;;;7.10;4.60;;;13.80;99.90;;;;;;4981169;28;20949;-83
2021/12/31 11:01:48;;;;;;;7.70;4.07;;;13.90;99.90;;;;;;4984762;28;20456;-83
2021/12/31 11:04:20;;;;;;;7.60;4.70;;;13.90;99.90;;;;;;4985369;28;20441;-81
2021/12/31 11:06:47;;;;;;;5.60;3.77;;;13.90;99.90;;;;;;4982199;28;20536;-81
2021/12/31 11:09:16;;;;;;;7.40;4.00;;;14.00;99.90;;;;;;4981970;28;20459;-82
2021/12/31 11:11:44;;;;;;;5.70;3.67;;;14.00;99.90;;;;;;4984018;28;20430;-81
2021/12/31 11:14:11;;;;;;;7.40;4.40;;;13.90;99.90;;;;;;4982046;28;20427;-85
2021/12/31 11:16:39;;;;;;;6.47;4.30;;;13.90;99.90;;;;;;4983847;28;20450;-83
2021/12/31 11:19:08;;;;;;;5.47;3.70;;;14.00;99.90;;;;;;4982115;28;20547;-81
2021/12/31 11:21:37;;;;;;;8.40;4.13;;;14.10;99.90;;;;;;4981100;28;20494;-82
2021/12/31 11:24:30;;;;;;;6.20;4.03;;;14.10;99.90;;;;;;4981838;28;20430;-82
2021/12/31 11:33:30;;;;;;;;;;;;;;;;;;;;;
2021/12/31 12:14:54;;;;;;;4.90;2.93;;;14.80;99.90;;;;;;4890995;29;20457;-91
2021/12/31 12:17:43;;;;;;;4.80;2.60;;;14.70;99.90;;;;;;4917733;29;20444;-89
2021/12/31 12:20:13;;;;;;;5.20;3.13;;;14.80;99.90;;;;;;4948310;29;20490;-90
2021/12/31 12:22:50;;;;;;;4.00;2.57;;;14.90;99.90;;;;;;4994806;28;20436;-90
2021/12/31 12:25:19;;;;;;;3.57;2.13;;;15.00;99.90;;;;;;4992715;28;20411;-89
2021/12/31 12:27:48;;;;;;;4.90;2.80;;;15.00;99.90;;;;;;4991958;28;20486;-89
2021/12/31 12:30:17;;;;;;;5.60;2.60;;;15.10;99.90;;;;;;4983220;28;20480;-90
2021/12/31 12:33:04;;;;;;;5.60;2.70;;;15.10;99.90;;;;;;4983435;28;20499;-89
2021/12/31 12:35:36;;;;;;;4.87;3.30;;;15.40;99.90;;;;;;4998239;28;20475;-89
2021/12/31 12:38:05;;;;;;;6.90;3.00;;;15.40;99.90;;;;;;4991826;28;20510;-89
2021/12/31 12:40:37;;;;;;;3.60;2.20;;;15.50;99.90;;;;;;4985112;28;20536;-90
2021/12/31 12:43:06;;;;;;;5.23;2.53;;;15.50;99.90;;;;;;4984514;28;20452;-90
2021/12/31 12:45:34;;;;;;;3.70;2.13;;;15.50;99.90;;;;;;4985387;28;20432;-89
2021/12/31 12:48:04;;;;;;;4.03;2.43;;;15.60;99.90;;;;;;4986852;28;20466;-89
2021/12/31 12:50:32;;;;;;;4.60;2.40;;;15.80;99.90;;;;;;4983764;28;20486;-88
2021/12/31 12:52:59;;;;;;;4.57;2.53;;;15.80;99.90;;;;;;4988434;28;20422;-89
2021/12/31 12:55:28;;;;;;;3.70;2.50;;;15.70;99.90;;;;;;4987923;28;20472;-89
2021/12/31 12:57:58;;;;;;;4.80;2.20;;;15.70;99.90;;;;;;4982278;28;20528;-89
2021/12/31 13:00:34;;;;;;;4.90;2.90;;;15.70;99.90;;;;;;4984136;28;20451;-91
2021/12/31 13:03:09;;;;;;;4.27;2.50;;;15.80;99.90;;;;;;4982312;28;20430;-89
2021/12/31 13:05:36;;;;;;;4.67;2.73;;;15.80;99.90;;;;;;4985349;28;20467;-89
2021/12/31 13:08:04;;;;;;;6.07;2.37;;;15.80;99.90;;;;;;4993238;28;20483;-89
2021/12/31 13:10:34;;;;;;;5.90;2.80;;;15.80;99.90;;;;;;4993218;28;20426;-90
2021/12/31 13:13:02;;;;;;;5.43;2.70;;;15.70;99.90;;;;;;4991688;28;20799;-89
2021/12/31 13:15:31;;;;;;;3.50;2.00;;;15.80;99.90;;;;;;4989509;28;20439;-89
2021/12/31 13:18:00;;;;;;;5.23;2.90;;;15.80;99.90;;;;;;4987857;28;20474;-89
2021/12/31 13:20:31;;;;;;;5.67;2.93;;;15.90;99.90;;;;;;4987294;28;20427;-89
2021/12/31 13:23:01;;;;;;;6.87;3.83;;;15.80;99.90;;;;;;4984584;28;20392;-89
2021/12/31 13:25:42;;;;;;;4.57;3.13;;;15.80;99.90;;;;;;4987042;28;20444;-90
2021/12/31 13:28:15;;;;;;;5.20;2.67;;;15.90;99.90;;;;;;4987646;28;20506;-88
2021/12/31 13:31:02;;;;;;;5.77;3.80;;;16.00;99.90;;;;;;4990825;28;20524;-90
2021/12/31 13:33:30;;;;;;;5.00;2.67;;;16.00;99.90;;;;;;4988281;28;20416;-89
2021/12/31 13:49:20;;;;;;;5.50;2.70;;;16.00;99.90;;;;;;5032541;28;20501;-89
2021/12/31 13:51:49;;;;;;;6.27;2.87;;;16.10;99.90;;;;;;4646126;22;20675;-89
2021/12/31 13:54:20;;;;;;;4.63;2.77;;;16.20;99.90;;;;;;5003431;28;20432;-89
2021/12/31 13:56:49;;;;;;;5.20;2.80;;;16.20;99.90;;;;;;5002599;28;20505;-90
2021/12/31 13:59:25;;;;;;;5.80;3.07;;;16.10;99.90;;;;;;5000301;28;20422;-89
2021/12/31 14:02:14;;;;;;;4.50;2.77;;;16.10;99.90;;;;;;5000551;28;20394;-89
2021/12/31 14:05:13;;;;;;;4.33;2.77;;;16.00;99.90;;;;;;5000356;28;20435;-88
2021/12/31 14:07:44;;;;;;;3.77;2.20;;;16.00;99.90;;;;;;5002437;28;20491;-80
2021/12/31 14:10:22;;;;;;;5.13;2.57;;;16.00;99.90;;;;;;5004910;28;20402;-84
2021/12/31 14:12:55;;;;;;;4.40;2.50;;;16.00;99.90;;;;;;5002920;28;20944;-80
2021/12/31 14:15:24;;;;;;;5.13;3.50;;;15.90;99.90;;;;;;5001503;28;20483;-84
2021/12/31 14:17:51;;;;;;;4.80;2.53;;;15.90;99.90;;;;;;5002021;28;20879;-84
2021/12/31 14:20:21;;;;;;;4.00;2.43;;;15.90;99.90;;;;;;5003064;28;20505;-83
2021/12/31 14:22:50;;;;;;;4.30;2.20;;;15.90;99.90;;;;;;5012669;28;20447;-83
2021/12/31 14:25:17;;;;;;;5.87;3.73;;;15.90;99.90;;;;;;5014206;28;20417;-87
2021/12/31 14:27:45;;;;;;;6.33;4.10;;;16.00;99.90;;;;;;5016319;28;20546;-87
2021/12/31 14:30:13;;;;;;;5.50;3.43;;;15.90;99.90;;;;;;5013856;28;20450;-88
2021/12/31 14:32:43;;;;;;;6.93;4.50;;;15.90;99.90;;;;;;5018614;28;20462;-84
2021/12/31 14:35:14;;;;;;;5.60;4.10;;;15.90;99.90;;;;;;5012439;28;21015;-84
2021/12/31 14:37:42;;;;;;;4.67;3.27;;;15.90;99.90;;;;;;5006554;28;20819;-84
2021/12/31 14:40:13;;;;;;;6.30;4.30;;;15.90;99.90;;;;;;5005482;28;20463;-87
2021/12/31 14:42:41;;;;;;;5.73;3.73;;;15.80;99.90;;;;;;5007464;28;20440;-83
2021/12/31 14:45:10;;;;;;;5.27;3.37;;;15.70;99.90;;;;;;5004726;28;20956;-84
2021/12/31 14:47:37;;;;;;;5.73;3.17;;;15.80;99.90;;;;;;5004829;28;20517;-83
2021/12/31 14:50:05;;;;;;;11.90;3.57;;;15.70;99.90;;;;;;5014416;28;20451;-83
2021/12/31 14:52:33;;;;;;;5.27;3.43;;;15.70;99.90;;;;;;5018399;28;20497;-82
2021/12/31 14:55:02;;;;;;;8.10;5.83;;;15.60;99.90;;;;;;5018191;28;20514;-83
2021/12/31 14:57:28;;;;;;;9.03;6.03;;;15.40;99.90;;;;;;5017215;28;20455;-82
2021/12/31 14:59:55;;;;;;;14.80;7.40;;;15.30;99.90;;;;;;5016762;28;20451;-84